Acadiana Regional Airport
KARA : now visible

Airfield :











YOU CAN JOIN US ON...

 
LOGIN :

Register | Disclaimer

   EN    FR    IT 

 









Legend :    VFR   Marginal VFR   IFR   Intensive IFR   Very Intensive IFR
Visi :
Ceiling :
>= 8 km
>= 3000ft
5 to 8 km
1000 to 3000 ft
1500m to 5 km
500 to 1000 ft
800 to 1500m
200 to 500 ft
< 800m
< 200 ft
Symbols :   Thunderstorms  Fog  Heavy snow  Heavy precipitations  Wind > 20 kt






- Airport Elevation : 24 ft


KARA - Acadiana Regional

CURRENT METAR :
  • 212353Z 09004KT 10SM CLR 27/19 A3000 RMK AO2 SLP159 T02670189 10317 20261 55000

EXPIRED METARs :
  • 212253Z 08007KT 10SM CLR 29/18 A3000 RMK AO2 SLP158 T02890183
  • 212153Z 09008KT 10SM FEW050 31/19 A3000 RMK AO2 SLP156 T03060189

TAF KARA
Valid from the 22 at 00:00 until the 23 at 00:00 UTC


212327Z 2200/2224 VRB04KT P6SM FEW040
FM220700 00000KT 3SM BR SCT005
TEMPO 2209/2213 1SM BR BKN005
FM221500 10009KT P6SM SCT015 BKN035
KZHU FIR / North America



MET'MAP, your aeronautical weather chart ! - Copyright ORBIFLY December 2007 - Disclaimer

ORBIFLY MET'MAP TEAM :

Programming & Development : Alexandra Zaïnal
Concept & original design : Baudouin d'Aumeries
Assistance for programming : Marc-Olivier Méhu
Technical & hardware support : Manuel Goepfert

Contact : metmap@orbifly.com




SOURCES & CREDITS :

   NOAA       Earth
Advisory